Time;durP1;ratioP1;P1;durP2;ratioP2;P2;SDS_P1;SDS_P2;PMS_P1;PMS_P2;Temp;Humidity;BMP_temperature;BMP_pressure;BME280_temperature;BME280_humidity;BME280_pressure;Samples;Min_cycle;Max_cycle;Signal;HPM_P1;HPM_P2
2021/07/06 00:01:06;;;;;;;3.30;1.85;;;;;;;17.84;89.25;100157.25;5070405;28;20044;-85
2021/07/06 00:03:34;;;;;;;3.78;1.60;;;;;;;17.83;89.13;100163.47;5065787;28;20052;-85
2021/07/06 00:06:01;;;;;;;4.70;1.60;;;;;;;17.83;89.13;100158.19;5052208;28;20158;-86
2021/07/06 00:08:33;;;;;;;4.32;2.03;;;;;;;17.83;89.75;100155.53;5047285;28;20052;-85
2021/07/06 00:11:00;;;;;;;1.63;1.50;;;;;;;17.83;89.68;100160.84;5053045;28;20453;-86
2021/07/06 00:13:29;;;;;;;2.50;1.42;;;;;;;17.81;89.61;100149.47;5051802;28;20059;-84
2021/07/06 00:15:56;;;;;;;2.20;1.63;;;;;;;17.77;90.07;100150.53;5044260;28;20051;-86
2021/07/06 00:18:23;;;;;;;2.88;1.48;;;;;;;17.77;90.04;100142.56;5049145;28;20067;-85
2021/07/06 00:20:59;;;;;;;1.95;1.52;;;;;;;17.78;90.05;100149.59;5048756;28;20039;-84
2021/07/06 00:23:29;;;;;;;5.65;1.50;;;;;;;17.79;89.90;100144.22;5048590;28;20057;-85
2021/07/06 00:25:56;;;;;;;1.27;1.23;;;;;;;17.80;89.75;100135.34;5031586;28;20049;-85
2021/07/06 00:28:26;;;;;;;2.75;1.10;;;;;;;17.83;89.96;100139.66;5058947;28;20037;-86
2021/07/06 00:30:55;;;;;;;2.53;1.92;;;;;;;17.86;89.87;100142.16;5049455;28;20857;-84
2021/07/06 00:33:29;;;;;;;2.90;1.92;;;;;;;17.88;89.87;100147.38;5063333;28;20112;-84
2021/07/06 00:36:01;;;;;;;0.90;0.85;;;;;;;17.89;89.75;100147.31;5048929;28;20052;-85
2021/07/06 00:38:36;;;;;;;1.55;1.15;;;;;;;17.92;89.70;100148.97;5050478;28;20055;-85
2021/07/06 00:41:04;;;;;;;7.43;1.67;;;;;;;17.93;89.78;100148.06;5053622;28;20141;-85
2021/07/06 00:43:32;;;;;;;5.80;1.63;;;;;;;17.97;89.69;100152.28;5046151;28;20052;-82
2021/07/06 00:46:13;;;;;;;1.92;1.25;;;;;;;17.98;89.66;100135.47;5047656;28;20044;-84
2021/07/06 00:48:45;;;;;;;2.20;1.30;;;;;;;18.00;90.05;100134.47;5040758;28;20091;-84
2021/07/06 00:51:14;;;;;;;0.82;0.82;;;;;;;18.01;89.47;100133.50;5045222;28;20051;-84
2021/07/06 00:53:43;;;;;;;1.77;1.15;;;;;;;18.01;89.50;100136.16;5043192;28;20136;-83
2021/07/06 00:56:10;;;;;;;1.98;1.23;;;;;;;18.04;89.29;100129.84;5061843;28;20058;-83
2021/07/06 00:58:40;;;;;;;1.77;1.35;;;;;;;18.09;89.17;100129.63;5047692;28;20029;-83
2021/07/06 01:01:08;;;;;;;4.05;2.10;;;;;;;18.11;88.93;100133.94;5045935;28;20156;-84
2021/07/06 01:03:35;;;;;;;1.25;1.00;;;;;;;18.14;88.72;100125.81;5061517;28;20042;-83
2021/07/06 01:06:04;;;;;;;2.60;1.33;;;;;;;18.18;88.77;100130.03;5055416;28;20040;-83
2021/07/06 01:08:40;;;;;;;1.95;1.40;;;;;;;18.20;88.60;100129.97;5060939;28;20095;-84
2021/07/06 01:11:10;;;;;;;1.85;1.10;;;;;;;18.22;88.37;100127.25;5042169;28;20037;-83
2021/07/06 01:13:36;;;;;;;2.42;1.48;;;;;;;18.21;88.60;100118.41;5062544;28;20044;-84
2021/07/06 01:16:12;;;;;;;1.05;1.02;;;;;;;18.21;88.53;100118.41;5034352;28;20049;-84
2021/07/06 01:18:40;;;;;;;1.55;1.45;;;;;;;18.20;88.86;100124.69;5032103;28;20052;-82
2021/07/06 01:21:07;;;;;;;1.38;1.20;;;;;;;18.19;88.64;100121.16;5045955;28;20064;-85
2021/07/06 01:23:42;;;;;;;2.83;1.20;;;;;;;18.20;88.75;100127.31;5040159;28;20052;-81
2021/07/06 01:26:11;;;;;;;1.35;1.27;;;;;;;18.17;88.80;100125.69;5053413;28;20053;-85
2021/07/06 01:28:41;;;;;;;0.85;0.85;;;;;;;18.18;88.97;100118.59;5044233;28;20059;-80
2021/07/06 01:31:13;;;;;;;3.78;1.10;;;;;;;18.17;88.96;100098.31;5039954;28;20041;-79
2021/07/06 01:33:44;;;;;;;1.20;1.10;;;;;;;18.19;89.12;100104.41;5047747;28;20055;-80
2021/07/06 01:36:12;;;;;;;1.17;1.08;;;;;;;18.20;89.10;100095.53;5056037;28;20602;-86
2021/07/06 01:38:42;;;;;;;1.15;1.05;;;;;;;18.22;89.06;100100.75;5054035;28;20036;-84
2021/07/06 01:41:14;;;;;;;2.20;1.13;;;;;;;18.22;89.06;100084.84;5045658;28;20041;-79
2021/07/06 01:43:46;;;;;;;2.67;1.63;;;;;;;18.22;89.04;100085.72;5042206;28;20044;-80
2021/07/06 01:46:16;;;;;;;2.85;1.70;;;;;;;18.20;89.34;100095.53;5049089;28;20098;-87
2021/07/06 01:48:43;;;;;;;0.98;0.93;;;;;;;18.21;88.94;100083.97;5037197;28;20052;-80
2021/07/06 01:51:11;;;;;;;1.90;1.00;;;;;;;18.23;89.15;100087.44;5055397;28;20033;-81
2021/07/06 01:53:38;;;;;;;0.90;0.85;;;;;;;18.21;89.32;100076.03;5046517;28;20041;-81
2021/07/06 01:56:06;;;;;;;1.00;0.90;;;;;;;18.19;89.83;100073.47;5045048;28;20068;-81
2021/07/06 01:58:35;;;;;;;2.13;0.93;;;;;;;18.16;90.13;100064.81;5045862;28;20055;-79
2021/07/06 02:01:08;;;;;;;1.65;0.93;;;;;;;18.09;91.29;100071.38;5053646;28;20785;-80
2021/07/06 02:03:37;;;;;;;2.63;0.90;;;;;;;18.04;90.93;100055.69;5057008;28;20527;-85
2021/07/06 02:06:05;;;;;;;1.17;1.08;;;;;;;18.01;91.98;100055.84;5038660;28;20056;-81
2021/07/06 02:08:33;;;;;;;2.15;0.77;;;;;;;17.99;92.09;100060.34;5040334;28;20055;-80
2021/07/06 02:11:06;;;;;;;0.80;0.80;;;;;;;17.97;91.84;100064.88;5046812;28;20064;-81
2021/07/06 02:13:32;;;;;;;0.90;0.77;;;;;;;17.94;91.99;100068.53;5060199;28;20178;-88
2021/07/06 02:16:00;;;;;;;6.45;1.23;;;;;;;17.94;92.01;100072.97;5034725;28;20040;-86
2021/07/06 02:18:27;;;;;;;1.58;0.90;;;;;;;17.93;91.89;100065.97;5035983;28;20959;-83
2021/07/06 02:21:00;;;;;;;3.55;1.10;;;;;;;17.94;91.85;100072.97;5046652;28;20492;-81
2021/07/06 02:23:32;;;;;;;1.45;0.82;;;;;;;17.92;91.80;100074.81;5047887;28;20088;-81
2021/07/06 02:26:02;;;;;;;1.00;0.73;;;;;;;17.91;92.06;100065.16;5045384;28;20211;-85
2021/07/06 02:28:30;;;;;;;0.80;0.80;;;;;;;17.88;92.64;100063.50;5032649;28;20521;-85
2021/07/06 02:30:57;;;;;;;4.03;0.60;;;;;;;17.88;92.47;100062.66;5025199;28;20040;-81
2021/07/06 02:33:24;;;;;;;1.85;0.98;;;;;;;17.86;91.99;100060.09;5034409;28;20048;-85
2021/07/06 02:35:52;;;;;;;2.20;0.85;;;;;;;17.85;92.04;100058.38;5036177;28;20056;-82
2021/07/06 02:38:19;;;;;;;2.28;0.73;;;;;;;17.84;92.10;100057.50;5042333;28;20114;-81
2021/07/06 02:40:50;;;;;;;2.10;0.90;;;;;;;17.83;91.74;100050.50;5040590;28;20040;-83
2021/07/06 02:43:19;;;;;;;0.73;0.73;;;;;;;17.83;92.04;100050.50;5038951;28;20047;-85
2021/07/06 02:45:47;;;;;;;3.53;0.88;;;;;;;17.80;92.01;100058.59;5037295;28;20049;-85
2021/07/06 02:48:17;;;;;;;0.70;0.70;;;;;;;17.77;92.01;100056.09;5049498;28;20045;-81
2021/07/06 02:50:46;;;;;;;1.13;1.02;;;;;;;17.75;92.55;100046.50;5043598;28;20048;-81
2021/07/06 02:53:13;;;;;;;1.27;1.27;;;;;;;17.72;92.28;100055.47;5039279;28;20063;-82
2021/07/06 02:55:46;;;;;;;0.75;0.75;;;;;;;17.69;92.53;100068.81;5072167;28;20578;-81
2021/07/06 02:58:23;;;;;;;0.80;0.77;;;;;;;17.65;92.52;100076.06;5041013;28;20066;-86
2021/07/06 03:00:56;;;;;;;2.42;1.08;;;;;;;17.60;92.84;100061.31;5039446;28;20508;-81
2021/07/06 03:03:25;;;;;;;0.90;0.57;;;;;;;17.56;93.20;100051.81;5044181;28;20056;-81
2021/07/06 03:05:54;;;;;;;2.58;1.15;;;;;;;17.51;93.13;100046.75;5044131;28;20056;-85
2021/07/06 03:08:30;;;;;;;1.42;0.60;;;;;;;17.47;93.34;100055.75;5033582;28;20060;-87
2021/07/06 03:11:00;;;;;;;5.53;0.90;;;;;;;17.41;93.46;100054.28;5059726;28;20040;-82
2021/07/06 03:13:36;;;;;;;0.73;0.68;;;;;;;17.39;93.96;100063.22;5061421;28;20572;-83
2021/07/06 03:16:05;;;;;;;3.03;0.50;;;;;;;17.38;94.08;100061.47;5053210;28;20106;-81
2021/07/06 03:18:31;;;;;;;1.45;0.60;;;;;;;17.35;94.05;100062.47;5036651;28;20071;-87
2021/07/06 03:20:58;;;;;;;0.68;0.65;;;;;;;17.37;94.04;100068.56;5043603;28;20048;-81
2021/07/06 03:23:26;;;;;;;0.90;0.88;;;;;;;17.38;94.13;100075.59;5055083;28;20060;-82
2021/07/06 03:25:53;;;;;;;1.00;0.77;;;;;;;17.41;93.97;100071.94;5056232;28;20119;-84
2021/07/06 03:28:20;;;;;;;0.50;0.43;;;;;;;17.45;93.64;100070.88;5046730;28;20058;-81
2021/07/06 03:30:50;;;;;;;0.60;0.60;;;;;;;17.46;93.88;100072.59;5040800;28;20044;-83
2021/07/06 03:33:21;;;;;;;0.77;0.77;;;;;;;17.47;93.30;100071.63;5046498;28;20049;-82
2021/07/06 03:35:49;;;;;;;0.80;0.80;;;;;;;17.48;93.50;100074.22;5050350;28;20044;-87
2021/07/06 03:38:20;;;;;;;0.75;0.75;;;;;;;17.49;93.19;100064.50;5042265;28;20052;-82
2021/07/06 03:40:54;;;;;;;1.17;0.82;;;;;;;17.49;93.19;100072.44;5057984;28;20040;-81
2021/07/06 03:43:20;;;;;;;1.42;0.65;;;;;;;17.48;93.17;100065.41;5051044;28;20694;-79
2021/07/06 03:45:49;;;;;;;0.95;0.50;;;;;;;17.48;93.39;100066.28;5057002;28;20048;-80
2021/07/06 03:48:19;;;;;;;1.33;0.60;;;;;;;17.47;93.13;100069.88;5057800;28;20066;-79
2021/07/06 03:50:47;;;;;;;2.25;1.10;;;;;;;17.48;93.20;100071.59;5046089;28;20051;-83
2021/07/06 03:53:15;;;;;;;0.52;0.52;;;;;;;17.48;93.19;100068.94;5057043;28;20045;-79
2021/07/06 03:55:47;;;;;;;0.52;0.52;;;;;;;17.49;93.19;100070.63;5046430;28;20048;-81
2021/07/06 03:58:14;;;;;;;0.97;0.70;;;;;;;17.47;93.31;100058.41;5042386;28;20045;-80
2021/07/06 04:00:42;;;;;;;2.88;0.40;;;;;;;17.45;93.26;100060.28;5056492;28;20047;-82
2021/07/06 04:03:13;;;;;;;0.75;0.60;;;;;;;17.44;93.25;100063.84;5044653;28;20361;-80
2021/07/06 04:05:40;;;;;;;0.80;0.80;;;;;;;17.44;93.49;100069.13;5044930;28;20072;-82
2021/07/06 04:08:13;;;;;;;0.68;0.60;;;;;;;17.45;93.19;100058.47;5055724;28;20076;-84
2021/07/06 04:10:39;;;;;;;1.27;0.67;;;;;;;17.44;93.19;100069.13;5055515;28;20053;-80
2021/07/06 04:13:06;;;;;;;1.58;0.60;;;;;;;17.44;93.74;100053.25;5036325;28;20299;-81
2021/07/06 04:15:35;;;;;;;0.85;0.85;;;;;;;17.47;93.52;100053.97;5041362;28;20416;-84
2021/07/06 04:18:01;;;;;;;5.35;0.77;;;;;;;17.51;93.42;100049.41;5035043;28;20144;-85
2021/07/06 04:20:33;;;;;;;0.70;0.70;;;;;;;17.57;93.37;100042.97;5043512;28;20078;-80
2021/07/06 04:22:59;;;;;;;1.40;0.73;;;;;;;17.61;93.19;100061.28;5055886;28;20037;-80
2021/07/06 04:25:28;;;;;;;0.40;0.40;;;;;;;17.64;92.99;100061.13;5062340;28;20947;-83
2021/07/06 04:27:55;;;;;;;2.88;1.08;;;;;;;17.70;92.48;100052.00;5057737;28;20056;-83
2021/07/06 04:30:36;;;;;;;1.33;0.85;;;;;;;17.75;92.83;100055.31;5053268;28;20041;-80
2021/07/06 04:33:04;;;;;;;2.42;0.82;;;;;;;17.82;92.32;100056.72;5041618;28;20047;-79
2021/07/06 04:35:33;;;;;;;1.05;0.40;;;;;;;17.90;92.34;100055.47;5054870;28;20049;-81
2021/07/06 04:38:06;;;;;;;1.17;0.70;;;;;;;17.98;91.93;100059.50;5048866;28;20049;-79
2021/07/06 04:40:51;;;;;;;0.80;0.70;;;;;;;18.08;91.59;100049.34;5042225;28;20044;-82
2021/07/06 04:43:28;;;;;;;2.65;0.77;;;;;;;18.16;91.01;100048.91;5051808;28;20185;-81
2021/07/06 04:46:05;;;;;;;0.95;0.45;;;;;;;18.24;91.08;100045.88;5047416;28;20033;-80
2021/07/06 04:48:31;;;;;;;1.90;0.60;;;;;;;18.34;90.24;100048.00;5071553;28;20048;-83
2021/07/06 04:51:06;;;;;;;2.20;0.60;;;;;;;18.47;89.49;100056.19;5044395;28;20041;-80
2021/07/06 04:53:39;;;;;;;2.65;0.80;;;;;;;18.64;88.78;100046.50;5049717;28;20049;-81
2021/07/06 04:56:09;;;;;;;1.90;0.70;;;;;;;18.78;88.23;100043.97;5039053;28;20436;-80
2021/07/06 04:58:45;;;;;;;2.20;0.90;;;;;;;18.90;87.56;100039.84;5061586;28;20049;-79
2021/07/06 05:01:15;;;;;;;2.20;0.50;;;;;;;19.04;86.82;100033.78;5038746;28;20041;-83
2021/07/06 05:03:44;;;;;;;0.75;0.57;;;;;;;19.11;86.22;100034.31;5044515;28;20392;-82
2021/07/06 05:06:18;;;;;;;0.52;0.52;;;;;;;19.14;86.40;100044.78;5045258;28;20143;-81
2021/07/06 05:08:48;;;;;;;2.67;1.13;;;;;;;19.10;86.08;100041.44;5042106;28;20049;-81
2021/07/06 05:11:26;;;;;;;3.00;0.52;;;;;;;19.05;86.50;100029.38;5047110;28;20579;-80
2021/07/06 05:13:56;;;;;;;1.80;0.60;;;;;;;18.97;86.78;100030.63;5036502;28;20123;-83
2021/07/06 05:16:25;;;;;;;0.80;0.70;;;;;;;18.98;86.98;100028.81;5061491;28;20087;-79
2021/07/06 05:18:56;;;;;;;0.68;0.50;;;;;;;19.04;86.63;100025.00;5047991;28;20127;-81
2021/07/06 05:21:25;;;;;;;1.02;0.70;;;;;;;19.10;86.54;100016.69;5059426;28;20041;-82
2021/07/06 05:23:55;;;;;;;1.77;0.70;;;;;;;19.10;86.30;100014.91;5046681;28;20064;-79
2021/07/06 05:26:22;;;;;;;1.85;0.68;;;;;;;19.12;86.33;100028.06;5044396;28;20041;-83
2021/07/06 05:28:53;;;;;;;1.52;0.73;;;;;;;19.16;86.12;100032.25;5044330;28;20582;-79
2021/07/06 05:31:21;;;;;;;1.20;0.47;;;;;;;19.21;86.10;100035.53;5057745;28;20120;-80
2021/07/06 05:34:00;;;;;;;1.52;1.13;;;;;;;19.26;85.95;100033.47;5046784;28;20625;-79
2021/07/06 05:36:28;;;;;;;1.30;0.90;;;;;;;19.28;85.99;100041.34;5058526;28;20040;-82
2021/07/06 05:38:55;;;;;;;1.55;0.73;;;;;;;19.27;85.77;100037.00;5045981;28;20049;-79
2021/07/06 05:41:29;;;;;;;5.15;1.30;;;;;;;19.22;85.90;100034.59;5049386;28;20380;-80
2021/07/06 05:43:56;;;;;;;2.67;0.90;;;;;;;19.19;85.91;100032.13;5041328;28;20060;-80
2021/07/06 05:46:29;;;;;;;1.27;0.60;;;;;;;19.19;86.16;100021.50;5047407;28;20045;-79
2021/07/06 05:48:58;;;;;;;1.33;1.00;;;;;;;19.19;85.88;100024.16;5046795;28;20102;-80
2021/07/06 05:51:36;;;;;;;1.30;1.30;;;;;;;19.23;86.01;100019.50;5059901;28;20049;-80
2021/07/06 05:54:05;;;;;;;1.42;0.90;;;;;;;19.31;85.40;100026.13;5048592;28;20052;-79
2021/07/06 05:56:33;;;;;;;2.05;1.20;;;;;;;19.43;85.16;100021.91;5046605;28;20055;-81
2021/07/06 05:59:01;;;;;;;4.45;0.80;;;;;;;19.58;84.41;100014.91;5043483;28;20037;-78
2021/07/06 06:01:34;;;;;;;1.88;0.90;;;;;;;19.71;83.87;100009.75;5051089;28;20032;-84
2021/07/06 06:04:02;;;;;;;1.63;0.70;;;;;;;19.86;83.20;100010.69;5039832;28;20121;-82
2021/07/06 06:06:34;;;;;;;2.80;0.88;;;;;;;19.98;82.48;100001.13;5037842;28;20052;-79
2021/07/06 06:09:30;;;;;;;3.33;0.68;;;;;;;20.05;82.16;100004.28;5043913;28;20522;-81
2021/07/06 06:12:16;;;;;;;1.80;0.80;;;;;;;20.10;81.89;100019.03;5066770;28;20123;-80
2021/07/06 06:14:43;;;;;;;2.38;0.80;;;;;;;20.27;81.26;100025.13;5052655;28;20049;-82
2021/07/06 06:17:15;;;;;;;0.63;0.60;;;;;;;20.41;80.58;100022.50;5043396;28;20049;-80
2021/07/06 06:19:41;;;;;;;0.73;0.73;;;;;;;20.50;80.11;100023.75;5039240;28;20511;-79
2021/07/06 06:22:28;;;;;;;1.08;0.77;;;;;;;20.53;79.42;100020.06;5046729;28;20113;-79
2021/07/06 06:25:05;;;;;;;1.70;0.85;;;;;;;20.55;79.16;100020.84;5040973;28;20041;-82
2021/07/06 06:27:35;;;;;;;3.58;1.08;;;;;;;20.54;79.07;100022.63;5061017;28;20620;-82
2021/07/06 06:30:10;;;;;;;0.55;0.55;;;;;;;20.66;78.18;100015.69;5048171;28;20084;-83
2021/07/06 06:32:37;;;;;;;1.40;0.65;;;;;;;20.81;76.88;100020.09;5063397;28;20142;-82
2021/07/06 06:35:08;;;;;;;1.08;0.95;;;;;;;21.12;76.12;100020.84;5048091;28;20140;-81
2021/07/06 06:38:06;;;;;;;2.88;0.80;;;;;;;21.46;74.62;100021.34;5041898;28;20049;-79
2021/07/06 06:40:34;;;;;;;1.15;0.50;;;;;;;21.70;73.34;100025.22;5052234;28;20048;-79
2021/07/06 06:43:09;;;;;;;0.77;0.73;;;;;;;21.81;71.87;100026.22;5052215;28;20894;-79
2021/07/06 06:45:52;;;;;;;1.88;0.75;;;;;;;21.98;71.75;100018.91;5059375;28;20076;-79
2021/07/06 06:48:21;;;;;;;1.65;0.85;;;;;;;22.08;71.42;100014.66;5055982;28;20114;-80
2021/07/06 06:50:49;;;;;;;2.25;0.60;;;;;;;22.10;70.94;100009.25;5038733;28;20040;-80
2021/07/06 06:53:16;;;;;;;0.82;0.80;;;;;;;22.04;70.51;100014.97;5042927;28;20075;-80
2021/07/06 06:56:04;;;;;;;1.13;0.73;;;;;;;21.93;70.15;100007.72;5045292;28;20045;-81
2021/07/06 06:58:33;;;;;;;5.57;0.80;;;;;;;21.95;70.72;100011.97;5055958;28;20060;-80
2021/07/06 07:01:01;;;;;;;3.08;0.95;;;;;;;21.94;70.78;100012.06;5045272;28;20048;-79
2021/07/06 07:03:28;;;;;;;2.38;0.85;;;;;;;22.09;70.62;100004.88;5048040;28;20055;-80
2021/07/06 07:05:56;;;;;;;2.15;0.60;;;;;;;22.33;70.14;100020.13;5050352;28;20048;-80
2021/07/06 07:08:25;;;;;;;1.30;0.70;;;;;;;22.56;68.69;100015.94;5049100;28;20056;-78
2021/07/06 07:10:56;;;;;;;0.90;0.57;;;;;;;22.70;68.31;100012.31;5059791;28;20049;-82
2021/07/06 07:13:24;;;;;;;0.63;0.40;;;;;;;22.77;68.05;100014.41;5061784;28;20064;-79
2021/07/06 07:15:54;;;;;;;1.85;0.63;;;;;;;22.88;67.68;100018.13;5056754;28;20127;-85
2021/07/06 07:18:21;;;;;;;6.07;0.93;;;;;;;22.98;67.56;100021.03;5058507;28;20048;-82
2021/07/06 07:20:52;;;;;;;2.35;0.98;;;;;;;22.98;67.35;100013.00;5043601;28;20044;-82
2021/07/06 07:23:19;;;;;;;2.28;0.60;;;;;;;22.92;67.41;100017.81;5069726;28;20444;-80
2021/07/06 07:25:49;;;;;;;1.90;1.70;;;;;;;22.96;67.41;100016.63;5051322;28;20079;-81
2021/07/06 07:28:19;;;;;;;1.05;0.65;;;;;;;22.96;66.70;100016.63;5049217;28;20586;-80
2021/07/06 07:30:54;;;;;;;1.95;1.10;;;;;;;22.95;66.61;100025.59;5055869;28;20163;-81
2021/07/06 07:33:20;;;;;;;0.77;0.55;;;;;;;23.01;66.89;100023.47;5067351;28;20115;-80
2021/07/06 07:35:48;;;;;;;1.17;0.80;;;;;;;23.07;65.91;100020.34;5064289;28;20067;-81
2021/07/06 07:38:24;;;;;;;4.53;0.80;;;;;;;23.25;65.23;100013.72;5057087;28;20051;-82
2021/07/06 07:40:53;;;;;;;1.80;0.60;;;;;;;23.50;64.83;100014.59;5039344;28;20041;-81
2021/07/06 07:43:21;;;;;;;1.00;0.80;;;;;;;23.77;63.88;100010.84;5053285;28;20045;-81
2021/07/06 07:45:51;;;;;;;3.30;0.85;;;;;;;23.96;62.91;100018.38;5045892;28;20503;-83
2021/07/06 07:48:18;;;;;;;2.67;0.68;;;;;;;24.11;62.36;100022.56;5046880;28;20574;-83
2021/07/06 07:50:48;;;;;;;2.28;0.80;;;;;;;24.37;61.07;100026.91;5049612;28;20056;-80
2021/07/06 07:53:16;;;;;;;4.25;0.70;;;;;;;24.61;60.53;100024.13;5040836;28;20045;-81
2021/07/06 07:55:46;;;;;;;0.90;0.50;;;;;;;24.92;59.21;100024.41;5045710;28;20487;-80
2021/07/06 07:58:16;;;;;;;1.17;0.60;;;;;;;25.08;57.78;100027.59;5059533;28;20064;-83
2021/07/06 08:01:19;;;;;;;0.93;0.65;;;;;;;25.10;57.60;100022.94;5050985;28;20049;-79
2021/07/06 08:03:46;;;;;;;2.27;1.23;;;;;;;24.94;58.58;100020.66;5045440;28;20178;-80
2021/07/06 08:06:16;;;;;;;4.22;0.93;;;;;;;24.79;59.34;100013.84;5047828;28;20048;-81
2021/07/06 08:08:48;;;;;;;2.47;0.85;;;;;;;24.57;59.58;100011.97;5042967;28;20049;-81
2021/07/06 08:11:22;;;;;;;0.50;0.47;;;;;;;24.50;60.36;100000.88;5054341;28;20091;-80
2021/07/06 08:13:53;;;;;;;1.38;0.52;;;;;;;24.41;60.68;99999.78;5054659;28;20499;-81
2021/07/06 08:16:20;;;;;;;2.40;0.75;;;;;;;24.31;60.93;99997.94;5064517;28;20041;-80
2021/07/06 08:18:47;;;;;;;1.75;0.68;;;;;;;24.21;61.09;100013.81;5049609;28;20067;-80
2021/07/06 08:21:16;;;;;;;5.35;0.93;;;;;;;24.11;61.58;100017.22;5062656;28;20072;-80
2021/07/06 08:23:43;;;;;;;1.17;0.63;;;;;;;24.09;61.52;100027.19;5044657;28;20121;-81
2021/07/06 08:26:12;;;;;;;2.05;0.68;;;;;;;24.10;61.87;100028.88;5055625;28;20048;-83
2021/07/06 08:28:43;;;;;;;2.40;0.73;;;;;;;24.12;61.71;100031.44;5057961;28;20052;-82
2021/07/06 08:31:10;;;;;;;2.78;0.68;;;;;;;24.14;62.04;100032.16;5043084;28;20518;-82
2021/07/06 08:33:37;;;;;;;1.83;0.63;;;;;;;24.07;62.22;100034.44;5062394;28;20048;-83
2021/07/06 08:36:05;;;;;;;2.22;0.70;;;;;;;24.03;62.30;100029.47;5057050;28;20069;-80
2021/07/06 08:38:38;;;;;;;2.20;0.75;;;;;;;24.09;62.64;100034.34;5051542;28;20491;-80
2021/07/06 08:41:09;;;;;;;1.15;0.55;;;;;;;24.19;62.46;100042.53;5046526;28;20052;-81
2021/07/06 08:43:38;;;;;;;1.67;0.80;;;;;;;24.40;61.84;100040.03;5042438;28;20044;-82
2021/07/06 08:46:08;;;;;;;1.73;0.80;;;;;;;24.70;61.10;100046.69;5033790;28;20040;-80
2021/07/06 08:48:36;;;;;;;3.08;0.85;;;;;;;24.99;60.26;100043.53;5058745;28;20110;-80
2021/07/06 08:51:05;;;;;;;1.80;0.50;;;;;;;25.04;58.90;100046.69;5049676;28;20053;-81
2021/07/06 08:53:33;;;;;;;1.67;0.70;;;;;;;25.37;58.64;100050.34;5057973;28;20105;-80
2021/07/06 08:56:13;;;;;;;0.88;0.50;;;;;;;25.93;55.12;100054.72;5044534;28;20072;-80
2021/07/06 08:58:49;;;;;;;1.05;0.73;;;;;;;26.50;53.77;100041.03;5042284;28;20410;-79
2021/07/06 09:01:36;;;;;;;0.88;0.82;;;;;;;26.64;51.85;100051.44;5045611;28;20041;-80
2021/07/06 09:04:06;;;;;;;0.52;0.50;;;;;;;26.44;53.79;100057.66;5062433;28;20053;-85
2021/07/06 09:06:54;;;;;;;1.42;0.47;;;;;;;26.03;52.78;100038.69;5048694;28;20054;-82
2021/07/06 09:09:28;;;;;;;2.85;0.85;;;;;;;25.72;54.73;100044.78;5046646;28;20037;-81
2021/07/06 09:12:34;;;;;;;1.13;0.80;;;;;;;25.41;54.92;100049.97;5065555;28;20048;-80
2021/07/06 09:15:20;;;;;;;1.90;0.95;;;;;;;25.06;55.76;100044.75;5054500;28;20091;-81
2021/07/06 09:18:13;;;;;;;1.00;0.68;;;;;;;24.80;56.48;100050.34;5058881;28;20048;-81
2021/07/06 09:21:09;;;;;;;4.70;1.65;;;;;;;24.52;57.36;100054.28;5050923;28;20055;-80
2021/07/06 09:23:42;;;;;;;0.70;0.40;;;;;;;24.39;58.28;100057.03;5039413;28;20049;-81
2021/07/06 09:26:29;;;;;;;0.80;0.35;;;;;;;24.24;58.60;100059.91;5042792;28;20536;-80
2021/07/06 09:29:22;;;;;;;0.55;0.50;;;;;;;24.16;58.95;100065.00;5053303;28;20623;-81
2021/07/06 09:31:52;;;;;;;6.05;1.08;;;;;;;24.13;58.80;100059.03;5042486;28;20127;-80
2021/07/06 09:34:20;;;;;;;1.23;0.68;;;;;;;24.09;59.08;100067.28;5045078;28;20107;-80
2021/07/06 09:36:54;;;;;;;2.55;0.35;;;;;;;24.05;59.29;100052.44;5045388;28;20058;-82
2021/07/06 09:39:41;;;;;;;0.60;0.60;;;;;;;24.00;59.10;100056.41;5046479;28;20069;-81
2021/07/06 09:42:11;;;;;;;1.65;0.70;;;;;;;23.98;59.49;100066.38;5057467;28;20079;-81
2021/07/06 09:45:02;;;;;;;1.02;0.45;;;;;;;24.08;59.43;100068.25;5066743;28;20546;-81
2021/07/06 09:47:32;;;;;;;0.50;0.50;;;;;;;24.27;58.77;100067.72;5036459;28;20040;-83
2021/07/06 09:50:00;;;;;;;3.05;0.82;;;;;;;24.37;58.58;100075.88;5047203;28;20091;-81
2021/07/06 09:52:38;;;;;;;1.83;0.60;;;;;;;24.35;58.93;100072.47;5058238;28;20044;-79
2021/07/06 09:55:14;;;;;;;0.70;0.70;;;;;;;24.27;59.21;100069.53;5053651;28;20044;-79
2021/07/06 09:57:41;;;;;;;0.98;0.50;;;;;;;24.13;59.77;100070.56;5037543;28;20136;-79
2021/07/06 10:00:15;;;;;;;2.47;0.70;;;;;;;24.00;60.70;100075.13;5047614;28;20055;-82
2021/07/06 10:02:44;;;;;;;0.75;0.60;;;;;;;23.86;60.99;100092.19;5048993;28;20067;-80
2021/07/06 10:05:18;;;;;;;1.63;0.70;;;;;;;23.67;62.35;100098.84;5057434;28;20049;-82
2021/07/06 10:07:52;;;;;;;1.80;0.90;;;;;;;23.42;63.60;100102.47;5060637;28;20632;-80
2021/07/06 10:10:23;;;;;;;0.93;0.80;;;;;;;23.29;64.23;100100.66;5039246;28;20048;-79
2021/07/06 10:12:53;;;;;;;3.83;0.68;;;;;;;23.14;63.21;100107.09;5058047;28;20037;-80
2021/07/06 10:15:25;;;;;;;0.82;0.65;;;;;;;22.95;63.61;100096.81;5059223;28;20040;-80
2021/07/06 10:17:55;;;;;;;1.63;0.80;;;;;;;22.76;64.25;100095.44;5037137;28;20048;-81
2021/07/06 10:20:27;;;;;;;2.08;0.98;;;;;;;22.64;65.56;100106.94;5057008;28;20052;-81
2021/07/06 10:23:01;;;;;;;0.75;0.73;;;;;;;22.49;67.38;100107.97;5059840;28;20033;-80
2021/07/06 10:25:36;;;;;;;1.67;0.70;;;;;;;22.41;68.65;100120.03;5048376;28;20071;-83
2021/07/06 10:28:16;;;;;;;0.73;0.50;;;;;;;22.26;70.24;100131.69;5052134;28;20052;-85
2021/07/06 10:33:35;;;;;;;0.57;0.57;;;;;;;21.94;72.39;100138.19;5061406;28;20037;-85
2021/07/06 10:36:06;;;;;;;0.77;0.52;;;;;;;21.78;73.83;100137.44;5059685;28;20040;-86
2021/07/06 10:38:38;;;;;;;0.88;0.88;;;;;;;21.69;74.95;100146.88;5062154;28;20639;-85
2021/07/06 10:41:23;;;;;;;0.63;0.63;;;;;;;21.61;75.99;100142.03;5073966;28;20043;-86
2021/07/06 10:43:56;;;;;;;1.33;0.70;;;;;;;21.59;77.04;100146.63;5063450;28;20072;-87
2021/07/06 10:46:29;;;;;;;3.70;1.00;;;;;;;21.57;77.09;100151.16;5048260;28;20578;-86
2021/07/06 10:49:40;;;;;;;;;;;;;;;;;;;;;
2021/07/06 10:52:35;;;;;;;1.20;0.73;;;;;;;21.40;81.38;100162.00;5050849;28;20052;-87
2021/07/06 10:55:38;;;;;;;1.58;0.90;;;;;;;21.19;84.36;100140.25;5063561;28;20051;-84
2021/07/06 10:58:09;;;;;;;3.15;1.00;;;;;;;20.79;85.82;100136.41;5053404;28;20041;-85
2021/07/06 11:00:46;;;;;;;9.73;6.43;;;;;;;20.38;89.43;100133.50;5043324;28;20051;-87
2021/07/06 11:03:49;;;;;;;2.42;1.45;;;;;;;20.11;92.02;100131.47;5059603;28;20082;-85
2021/07/06 11:06:47;;;;;;;1.98;1.50;;;;;;;19.91;94.37;100111.38;5052207;28;20556;-87
2021/07/06 11:09:35;;;;;;;2.00;1.90;;;;;;;19.78;95.58;100066.03;5072360;28;20049;-88
2021/07/06 11:12:37;;;;;;;1.90;1.80;;;;;;;19.69;96.49;100002.81;5072761;28;20037;-87
2021/07/06 11:15:27;;;;;;;2.13;2.03;;;;;;;19.58;97.13;99995.44;5076332;28;20508;-86
2021/07/06 11:18:10;;;;;;;4.43;2.40;;;;;;;19.37;97.33;100024.91;5060030;28;20421;-84
2021/07/06 11:20:48;;;;;;;2.22;2.13;;;;;;;19.26;98.46;100011.41;5058956;28;20427;-83
2021/07/06 11:23:37;;;;;;;4.13;1.67;;;;;;;19.18;99.21;100027.75;5048497;28;20033;-85
2021/07/06 11:26:14;;;;;;;1.95;1.70;;;;;;;19.16;98.49;100019.88;5075222;28;20575;-86
2021/07/06 11:29:02;;;;;;;2.33;1.65;;;;;;;19.19;97.59;100016.19;5064094;28;20048;-85
2021/07/06 11:31:31;;;;;;;2.35;1.67;;;;;;;19.26;97.93;100022.00;5057154;28;20748;-86
2021/07/06 11:34:04;;;;;;;3.70;1.88;;;;;;;19.29;97.71;100046.56;5069248;28;20036;-87
2021/07/06 11:36:38;;;;;;;3.30;2.05;;;;;;;19.34;97.12;100025.09;5051959;28;20037;-89
2021/07/06 11:39:12;;;;;;;3.85;1.65;;;;;;;19.40;96.79;99986.72;5056644;28;20058;-88
2021/07/06 11:41:56;;;;;;;2.00;1.90;;;;;;;19.45;95.81;99980.22;5056928;28;20049;-87
2021/07/06 11:44:26;;;;;;;1.77;1.70;;;;;;;19.54;95.66;100026.63;5066166;28;20098;-85
2021/07/06 11:47:19;;;;;;;1.70;1.60;;;;;;;19.66;94.92;100017.13;5053414;28;20141;-87
2021/07/06 11:49:49;;;;;;;2.20;1.52;;;;;;;19.76;94.13;99993.53;5058338;28;20056;-87
2021/07/06 11:52:20;;;;;;;2.28;1.40;;;;;;;19.83;94.11;99998.44;5052942;28;20044;-88
2021/07/06 11:54:58;;;;;;;1.85;1.75;;;;;;;19.92;94.11;100033.38;5044531;28;20159;-87